This is the latest recevied weather packets stored in our database for station/object KB0BS-13. If no packets are shown the sender has not sent any weather packets the latest 10 day(s).
| Time | Temp. | Humidity | Pressure | Rain* | Wind** | Luminosity | Snow |
|---|---|---|---|---|---|---|---|
| 1777958245 | 7.22° C | 69% | 1000.1 hPa | 0 mm | - | 0 W/m² | - |
| 1777957943 | 7.22° C | 69% | 999.9 hPa | 0 mm | - | 0 W/m² | - |
| 1777957640 | 7.22° C | 68% | 999.9 hPa | 0 mm | - | 0 W/m² | - |
| 1777957339 | 7.22° C | 70% | 999.7 hPa | 0 mm | - | 0 W/m² | - |
| 1777957034 | 7.22° C | 71% | 999.8 hPa | 0 mm | - | 0 W/m² | - |
| 1777956732 | 7.22° C | 71% | 999.7 hPa | 0 mm | - | 0 W/m² | - |
| 1777956428 | 7.22° C | 70% | 999.9 hPa | 0 mm | - | 0 W/m² | - |
| 1777956125 | 7.22° C | 70% | 999.6 hPa | 0 mm | - | 0 W/m² | - |
| 1777955822 | 7.22° C | 73% | 999.5 hPa | 0 mm | - | 0 W/m² | - |
| 1777955518 | 7.22° C | 71% | 999.6 hPa | 0 mm | - | 0 W/m² | - |
| 1777955214 | 7.22° C | 72% | 999.6 hPa | 0 mm | - | 0 W/m² | - |
| 1777954912 | 7.22° C | 71% | 999.7 hPa | 0 mm | - | 0 W/m² | - |
| 1777954608 | 7.22° C | 74% | 999.6 hPa | 0 mm | - | 0 W/m² | - |
| 1777954306 | 7.22° C | 73% | 999.9 hPa | 0 mm | - | 0 W/m² | - |
| 1777954003 | 7.22° C | 70% | 999.7 hPa | 0 mm | - | 0 W/m² | - |
| 1777953396 | 7.22° C | 74% | 999.4 hPa | 0 mm | - | 0 W/m² | - |
| 1777943702 | 7.78° C | 83% | 997.8 hPa | 0 mm | - | 0 W/m² | - |
| 1777943400 | 7.78° C | 83% | 998.2 hPa | 0 mm | - | 0 W/m² | - |
| 1777943095 | 7.78° C | 83% | 998.2 hPa | 0 mm | - | 0 W/m² | - |
| 1777940973 | 8.33° C | 80% | 997.9 hPa | 0 mm | - | 4 W/m² | - |
| 1777940669 | 8.89° C | 81% | 997.6 hPa | 0 mm | - | 4 W/m² | - |
| 1777940367 | 8.89° C | 80% | 997.5 hPa | 0 mm | - | 5 W/m² | - |
| 1777940065 | 8.89° C | 79% | 997.4 hPa | 0 mm | - | 6 W/m² | - |
| 1777939762 | 8.89° C | 85% | 997.2 hPa | 0 mm | - | 6 W/m² | - |
| 1777939460 | 8.89° C | 86% | 997.3 hPa | 0 mm | - | 7 W/m² | - |
* Rain latest hour (hover to see other rain measurements)
** Current wind speed in m/s (hover to see current wind gust speed)